createdAt,value
2023-02-28T00:01:30.363Z,81.14
2023-02-28T00:03:58.447Z,80.10
2023-02-28T00:06:26.069Z,80.56
2023-02-28T00:08:53.492Z,80.97
2023-02-28T00:11:22.892Z,80.96
2023-02-28T00:13:50.418Z,81.84
2023-02-28T00:16:20.874Z,81.84
2023-02-28T00:18:48.923Z,82.45
2023-02-28T00:21:18.140Z,81.65
2023-02-28T00:23:45.792Z,82.58
2023-02-28T00:26:13.392Z,82.51
2023-02-28T00:28:44.521Z,81.84
2023-02-28T00:31:12.116Z,82.02
2023-02-28T00:33:39.338Z,82.81
2023-02-28T00:36:09.379Z,82.77
2023-02-28T00:38:40.856Z,83.64
2023-02-28T00:41:09.289Z,83.71
2023-02-28T00:43:38.611Z,83.49
2023-02-28T00:46:06.488Z,83.60
2023-02-28T00:48:34.024Z,83.51
2023-02-28T00:51:01.529Z,84.58
2023-02-28T00:53:29.795Z,84.18
2023-02-28T00:55:58.645Z,84.56
2023-02-28T00:58:27.542Z,84.58
2023-02-28T01:00:55.218Z,84.29
2023-02-28T01:03:23.764Z,84.63
2023-02-28T01:05:51.603Z,84.89
2023-02-28T01:08:19.067Z,85.00
2023-02-28T01:10:46.513Z,84.99
2023-02-28T01:13:14.274Z,84.80
2023-02-28T01:15:46.520Z,85.12
2023-02-28T01:18:14.010Z,85.38
2023-02-28T01:20:41.450Z,85.64
2023-02-28T01:23:10.417Z,87.13
2023-02-28T01:25:38.434Z,87.43
2023-02-28T01:28:07.216Z,87.68
2023-02-28T01:30:35.385Z,87.17
2023-02-28T01:33:03.290Z,86.40
2023-02-28T01:35:34.870Z,87.20
2023-02-28T01:38:20.402Z,86.84
2023-02-28T01:40:49.096Z,87.13
2023-02-28T01:43:26.653Z,87.19
2023-02-28T01:45:57.574Z,86.59
2023-02-28T01:48:32.633Z,87.17
2023-02-28T01:51:06.412Z,86.56
2023-02-28T01:53:38.600Z,87.39
2023-02-28T01:56:08.308Z,87.70
2023-02-28T01:58:38.092Z,87.93
2023-02-28T02:01:06.241Z,88.48
2023-02-28T02:03:37.032Z,88.74
2023-02-28T02:06:05.123Z,87.73
2023-02-28T02:08:32.586Z,88.79
2023-02-28T02:11:01.211Z,88.76
2023-02-28T02:13:56.628Z,88.00
2023-02-28T02:16:36.638Z,88.22
2023-02-28T02:19:25.537Z,87.62
2023-02-28T02:22:22.357Z,88.39
2023-02-28T02:25:05.739Z,89.42
2023-02-28T02:28:13.934Z,88.92
2023-02-28T02:30:50.241Z,89.41
2023-02-28T02:33:38.417Z,89.76
2023-02-28T02:36:39.628Z,88.76
2023-02-28T02:39:24.845Z,90.28
2023-02-28T02:41:54.920Z,90.02
2023-02-28T02:44:27.326Z,90.83
2023-02-28T02:47:02.249Z,89.69
2023-02-28T02:49:33.444Z,89.16
2023-02-28T02:52:11.252Z,89.60
2023-02-28T02:54:43.660Z,90.42
2023-02-28T02:57:18.860Z,90.15
2023-02-28T02:59:46.897Z,89.77
2023-02-28T03:02:18.726Z,90.00
2023-02-28T03:04:56.925Z,90.74
2023-02-28T03:07:24.639Z,90.85
2023-02-28T03:09:57.761Z,90.96
2023-02-28T03:12:35.365Z,91.13
2023-02-28T03:15:20.729Z,91.80
2023-02-28T03:17:53.806Z,92.24
2023-02-28T03:20:39.683Z,92.76
2023-02-28T03:23:25.073Z,91.81
2023-02-28T03:26:08.974Z,92.07
2023-02-28T03:28:50.493Z,91.60
2023-02-28T03:31:30.642Z,91.40
2023-02-28T03:34:02.966Z,91.48
2023-02-28T03:36:33.526Z,91.29
2023-02-28T03:39:06.535Z,91.36
2023-02-28T03:41:40.126Z,91.57
2023-02-28T03:44:17.756Z,91.59
2023-02-28T03:46:54.393Z,91.89
2023-02-28T03:49:26.303Z,92.33
2023-02-28T03:51:57.459Z,93.23
2023-02-28T03:54:31.734Z,93.16
2023-02-28T03:57:24.695Z,93.64
2023-02-28T03:59:58.956Z,94.46
2023-02-28T04:02:26.800Z,93.92
2023-02-28T04:04:54.930Z,92.78
2023-02-28T04:07:22.577Z,91.75
2023-02-28T04:09:50.090Z,91.99
2023-02-28T04:12:17.789Z,92.92
2023-02-28T04:14:45.250Z,93.52
2023-02-28T04:17:12.854Z,93.22
2023-02-28T04:19:40.247Z,93.87
2023-02-28T04:22:09.563Z,94.08
2023-02-28T04:24:37.240Z,94.20
2023-02-28T04:27:05.109Z,94.98
2023-02-28T04:29:36.032Z,96.20
2023-02-28T04:32:04.437Z,96.29
2023-02-28T04:34:33.067Z,95.40
2023-02-28T04:37:17.006Z,95.10
2023-02-28T04:39:45.057Z,94.14
2023-02-28T04:42:13.628Z,93.99
2023-02-28T04:44:41.082Z,93.61
2023-02-28T04:47:08.511Z,94.23
2023-02-28T04:49:35.886Z,94.77
2023-02-28T04:52:03.214Z,94.73
2023-02-28T04:54:30.995Z,94.42
2023-02-28T04:56:58.552Z,95.22
2023-02-28T04:59:26.121Z,94.98
2023-02-28T05:01:53.579Z,95.63
2023-02-28T05:04:20.998Z,95.98
2023-02-28T05:06:48.400Z,95.65
2023-02-28T05:09:15.805Z,95.58
2023-02-28T05:11:43.076Z,95.58
2023-02-28T05:14:12.587Z,95.70
2023-02-28T05:16:40.492Z,95.50
2023-02-28T05:19:08.081Z,95.60
2023-02-28T05:21:53.056Z,96.18
2023-02-28T05:24:23.870Z,95.95
2023-02-28T05:26:54.207Z,96.20
2023-02-28T05:29:22.352Z,96.26
2023-02-28T05:31:50.000Z,96.45
2023-02-28T05:34:17.524Z,95.63
2023-02-28T05:36:45.078Z,95.96
2023-02-28T05:39:14.205Z,95.51
2023-02-28T05:41:43.819Z,96.20
2023-02-28T05:44:12.132Z,96.27
2023-02-28T05:46:39.708Z,96.13
2023-02-28T05:49:07.101Z,95.86
2023-02-28T05:51:37.336Z,96.22
2023-02-28T05:54:05.117Z,96.34
2023-02-28T05:56:33.118Z,96.05
2023-02-28T05:59:00.555Z,95.95
2023-02-28T06:01:38.565Z,95.38
2023-02-28T06:04:22.327Z,94.45
2023-02-28T06:06:58.628Z,94.85
2023-02-28T06:09:26.302Z,95.43
2023-02-28T06:11:53.856Z,94.83
2023-02-28T06:14:21.812Z,96.51
2023-02-28T06:16:49.334Z,96.35
2023-02-28T06:19:17.428Z,95.87
2023-02-28T06:21:45.482Z,96.61
2023-02-28T06:24:12.893Z,96.11
2023-02-28T06:26:40.249Z,95.99
2023-02-28T06:29:08.390Z,95.59
2023-02-28T06:31:36.105Z,94.95
2023-02-28T06:34:03.788Z,95.05
2023-02-28T06:36:31.800Z,94.18
2023-02-28T06:38:59.243Z,93.74
2023-02-28T06:41:27.950Z,94.49
2023-02-28T06:43:56.164Z,94.00
2023-02-28T06:46:24.516Z,94.74
2023-02-28T06:48:52.002Z,94.58
2023-02-28T06:51:25.438Z,94.49
2023-02-28T06:53:52.999Z,94.72
2023-02-28T06:56:24.607Z,94.15
2023-02-28T06:58:57.248Z,94.62
2023-02-28T07:01:25.441Z,94.75
2023-02-28T07:03:54.316Z,94.32
2023-02-28T07:06:26.115Z,93.50
2023-02-28T07:08:54.913Z,89.97
2023-02-28T07:11:26.694Z,88.31
2023-02-28T07:13:58.325Z,86.31
2023-02-28T07:16:26.796Z,83.58
2023-02-28T07:18:55.227Z,81.03
2023-02-28T07:21:23.251Z,78.06
2023-02-28T07:23:51.203Z,76.17
2023-02-28T07:26:20.724Z,75.15
2023-02-28T07:28:49.623Z,73.35
2023-02-28T07:31:18.662Z,71.21
2023-02-28T07:33:46.170Z,66.95
2023-02-28T07:36:16.493Z,64.84
2023-02-28T07:38:49.391Z,63.00
2023-02-28T07:41:18.033Z,61.40
2023-02-28T07:43:45.970Z,58.70
2023-02-28T07:46:18.491Z,56.99
2023-02-28T07:48:46.133Z,55.70
2023-02-28T07:51:13.678Z,55.72
2023-02-28T07:53:41.091Z,55.37
2023-02-28T07:56:08.742Z,55.34
2023-02-28T07:58:36.384Z,54.93
2023-02-28T08:01:11.758Z,54.73
2023-02-28T08:03:40.478Z,54.16
2023-02-28T08:06:15.794Z,54.05
2023-02-28T08:08:43.542Z,53.04
2023-02-28T08:11:11.089Z,51.49
2023-02-28T08:13:38.740Z,49.79
2023-02-28T08:16:06.743Z,48.69
2023-02-28T08:18:34.708Z,47.16
2023-02-28T08:21:08.173Z,45.85
2023-02-28T08:23:36.298Z,45.91
2023-02-28T08:26:04.472Z,46.38
2023-02-28T08:28:31.982Z,45.28
2023-02-28T08:30:59.374Z,44.92
2023-02-28T08:33:29.034Z,43.52
2023-02-28T08:35:57.549Z,42.16
2023-02-28T08:38:25.699Z,41.27
2023-02-28T08:41:01.418Z,40.74
2023-02-28T08:43:30.095Z,40.59
2023-02-28T08:46:00.758Z,39.78
2023-02-28T08:48:30.687Z,39.55
2023-02-28T08:51:07.829Z,39.70
2023-02-28T08:53:40.622Z,39.26
2023-02-28T08:56:13.677Z,40.49
2023-02-28T08:58:41.521Z,40.78
2023-02-28T09:01:16.173Z,40.63
2023-02-28T09:03:44.943Z,40.26
2023-02-28T09:06:12.709Z,39.53
2023-02-28T09:08:40.746Z,39.31
2023-02-28T09:11:09.201Z,39.31
2023-02-28T09:13:37.354Z,40.25
2023-02-28T09:16:07.683Z,40.40
2023-02-28T09:18:38.584Z,39.97
2023-02-28T09:21:07.972Z,38.92
2023-02-28T09:23:36.191Z,38.77
2023-02-28T09:26:03.955Z,38.74
2023-02-28T09:28:31.386Z,38.45
2023-02-28T09:31:00.076Z,38.98
2023-02-28T09:33:27.730Z,37.42
2023-02-28T09:36:04.990Z,37.56
2023-02-28T09:38:32.970Z,38.10
2023-02-28T09:41:04.185Z,37.86
2023-02-28T09:43:38.853Z,37.90
2023-02-28T09:46:12.637Z,36.83
2023-02-28T09:48:48.132Z,37.30
2023-02-28T09:51:32.927Z,37.69
2023-02-28T09:54:02.222Z,37.80
2023-02-28T09:56:42.420Z,37.57
2023-02-28T09:59:24.007Z,36.61
2023-02-28T10:02:05.578Z,36.46
2023-02-28T10:04:55.470Z,37.05
2023-02-28T10:07:41.101Z,36.78
2023-02-28T10:10:32.500Z,36.92
2023-02-28T10:13:06.536Z,36.60
2023-02-28T10:15:36.850Z,36.53
2023-02-28T10:18:16.780Z,36.89
2023-02-28T10:20:46.722Z,38.19
2023-02-28T10:23:37.043Z,38.69
2023-02-28T10:26:24.983Z,38.34
2023-02-28T10:28:54.259Z,37.38
2023-02-28T10:31:23.070Z,37.78
2023-02-28T10:33:51.578Z,37.36
2023-02-28T10:36:20.122Z,37.44
2023-02-28T10:38:49.276Z,37.84
2023-02-28T10:41:43.110Z,38.84
2023-02-28T10:44:28.408Z,39.56
2023-02-28T10:46:57.661Z,39.50
2023-02-28T10:49:28.349Z,39.70
2023-02-28T10:51:59.120Z,40.10
2023-02-28T10:54:32.725Z,40.16
2023-02-28T10:57:23.288Z,40.37
2023-02-28T11:00:07.368Z,40.47
2023-02-28T11:02:37.156Z,40.43
2023-02-28T11:05:27.918Z,40.86
2023-02-28T11:08:04.327Z,39.88
2023-02-28T11:10:36.219Z,38.47
2023-02-28T11:13:04.882Z,38.17
2023-02-28T11:15:35.426Z,37.82
2023-02-28T11:18:23.923Z,39.32
2023-02-28T11:20:55.276Z,40.10
2023-02-28T11:23:28.769Z,41.06
2023-02-28T11:26:00.839Z,40.77
2023-02-28T11:28:35.726Z,38.84
2023-02-28T11:31:07.784Z,38.61
2023-02-28T11:33:52.245Z,38.86
2023-02-28T11:36:25.800Z,39.38
2023-02-28T11:39:02.939Z,39.46
2023-02-28T11:41:44.319Z,39.18
2023-02-28T11:44:36.562Z,38.33
2023-02-28T11:47:21.466Z,37.96
2023-02-28T11:50:20.761Z,38.25
2023-02-28T11:53:17.980Z,38.51
2023-02-28T11:56:12.443Z,39.19
2023-02-28T11:58:55.199Z,39.91
2023-02-28T12:01:32.512Z,39.74
2023-02-28T12:04:11.637Z,39.56
2023-02-28T12:07:04.568Z,39.99
2023-02-28T12:09:45.206Z,40.90
2023-02-28T12:12:33.545Z,39.85
2023-02-28T12:15:33.717Z,39.92
2023-02-28T12:18:28.043Z,39.55
2023-02-28T12:21:06.952Z,39.52
2023-02-28T12:23:52.676Z,40.60
2023-02-28T12:26:29.746Z,40.50
2023-02-28T12:29:12.994Z,40.41
2023-02-28T12:31:46.357Z,40.67
2023-02-28T12:34:21.680Z,41.76
2023-02-28T12:36:51.740Z,41.49
2023-02-28T12:39:36.458Z,41.63
2023-02-28T12:42:13.146Z,41.82
2023-02-28T12:45:00.114Z,41.30
2023-02-28T12:47:27.945Z,41.03
2023-02-28T12:50:06.222Z,41.43
2023-02-28T12:52:40.717Z,41.36
2023-02-28T12:55:26.386Z,41.50
2023-02-28T12:58:18.550Z,41.16
2023-02-28T13:01:29.287Z,41.85
2023-02-28T13:04:09.336Z,42.90
2023-02-28T13:07:02.253Z,43.14
2023-02-28T13:09:30.749Z,43.24
2023-02-28T13:11:59.529Z,43.56
2023-02-28T13:14:34.044Z,43.76
2023-02-28T13:17:10.443Z,43.83
2023-02-28T13:19:41.812Z,44.51
2023-02-28T13:22:27.590Z,44.88
2023-02-28T13:24:57.005Z,45.08
2023-02-28T13:27:41.533Z,45.28
2023-02-28T13:30:46.534Z,45.70
2023-02-28T13:33:36.427Z,44.60
2023-02-28T13:36:19.471Z,44.77
2023-02-28T13:38:54.894Z,45.14
2023-02-28T13:41:37.481Z,45.62
2023-02-28T13:44:14.388Z,46.67
2023-02-28T13:46:50.817Z,47.59
2023-02-28T13:49:24.283Z,47.62
2023-02-28T13:52:24.302Z,47.53
2023-02-28T13:55:00.192Z,47.87
2023-02-28T13:57:36.875Z,48.51
2023-02-28T14:00:06.730Z,49.02
2023-02-28T14:03:03.979Z,49.17
2023-02-28T14:05:34.922Z,49.73
2023-02-28T14:08:14.819Z,50.75
2023-02-28T14:10:49.079Z,51.51
2023-02-28T14:13:28.594Z,52.24
2023-02-28T14:16:04.172Z,53.20
2023-02-28T14:18:35.251Z,54.16
2023-02-28T14:21:08.373Z,54.36
2023-02-28T14:23:50.256Z,54.53
2023-02-28T14:26:38.814Z,54.28
2023-02-28T14:29:28.400Z,54.32
2023-02-28T14:32:14.532Z,54.61
2023-02-28T14:34:45.196Z,55.22
2023-02-28T14:37:21.317Z,56.28
2023-02-28T14:39:49.950Z,57.44
2023-02-28T14:42:35.384Z,58.84
2023-02-28T14:45:03.685Z,60.47
2023-02-28T14:47:36.446Z,62.92
2023-02-28T14:50:06.099Z,63.02
2023-02-28T14:52:34.230Z,64.10
2023-02-28T14:55:11.525Z,65.81
2023-02-28T14:57:45.134Z,65.88
2023-02-28T15:00:32.967Z,66.47
2023-02-28T15:03:02.874Z,66.45
2023-02-28T15:05:35.458Z,66.54
2023-02-28T15:08:12.872Z,67.02
2023-02-28T15:10:45.312Z,66.67
2023-02-28T15:13:16.306Z,66.71
2023-02-28T15:16:03.914Z,66.54
2023-02-28T15:18:46.945Z,67.16
2023-02-28T15:21:19.146Z,67.90
2023-02-28T15:23:52.277Z,68.67
2023-02-28T15:26:24.236Z,69.87
2023-02-28T15:29:02.659Z,70.74
2023-02-28T15:31:55.917Z,71.80
2023-02-28T15:34:45.177Z,79.40
2023-02-28T15:37:32.264Z,84.47
2023-02-28T15:40:31.966Z,85.29
2023-02-28T15:43:15.169Z,86.46
2023-02-28T15:45:48.159Z,87.06
2023-02-28T15:48:19.791Z,86.90
2023-02-28T15:51:02.325Z,88.44
2023-02-28T15:53:33.772Z,89.55
2023-02-28T15:56:04.395Z,92.59
2023-02-28T15:58:33.646Z,93.43
2023-02-28T16:01:20.202Z,95.63
2023-02-28T16:03:50.928Z,96.23
2023-02-28T16:06:18.272Z,95.87
2023-02-28T16:08:46.015Z,96.83
2023-02-28T16:11:13.487Z,95.85
2023-02-28T16:13:40.839Z,97.05
2023-02-28T16:16:08.267Z,97.17
2023-02-28T16:18:35.689Z,97.81
2023-02-28T16:21:03.108Z,97.56
2023-02-28T16:23:30.489Z,98.36
2023-02-28T16:25:57.896Z,98.12
2023-02-28T16:28:31.015Z,98.36
2023-02-28T16:30:58.474Z,97.76
2023-02-28T16:33:25.845Z,99.37
2023-02-28T16:35:53.601Z,100.00
2023-02-28T16:38:22.692Z,100.00
2023-02-28T16:40:51.870Z,100.00
2023-02-28T16:43:23.657Z,100.00
2023-02-28T16:45:56.661Z,100.00
2023-02-28T16:48:24.316Z,100.00
2023-02-28T16:50:52.532Z,100.00
2023-02-28T16:53:20.042Z,100.00
2023-02-28T16:55:48.363Z,100.00
2023-02-28T16:58:17.637Z,100.00
2023-02-28T17:00:45.217Z,100.00
2023-02-28T17:03:34.339Z,100.00
2023-02-28T17:06:02.205Z,100.00
2023-02-28T17:08:30.929Z,100.00
2023-02-28T17:10:58.960Z,100.00
2023-02-28T17:13:26.499Z,100.00
2023-02-28T17:15:54.196Z,100.00
2023-02-28T17:18:24.539Z,100.00
2023-02-28T17:20:52.114Z,99.86
2023-02-28T17:23:19.443Z,99.24
2023-02-28T17:25:57.157Z,99.14
2023-02-28T17:28:26.183Z,100.00
2023-02-28T17:30:53.721Z,100.00
2023-02-28T17:33:21.299Z,100.00
2023-02-28T17:35:49.232Z,100.00
2023-02-28T17:38:19.755Z,100.00
2023-02-28T17:40:47.236Z,100.00
2023-02-28T17:43:18.611Z,100.00
2023-02-28T17:45:46.086Z,100.00
2023-02-28T17:48:13.861Z,100.00
2023-02-28T17:50:41.551Z,100.00
2023-02-28T17:53:09.111Z,100.00
2023-02-28T17:55:37.143Z,100.00
2023-02-28T17:58:04.911Z,100.00
2023-02-28T18:00:34.618Z,100.00
2023-02-28T18:03:02.222Z,100.00
2023-02-28T18:05:29.968Z,100.00
2023-02-28T18:07:58.048Z,100.00
2023-02-28T18:10:25.770Z,100.00
2023-02-28T18:12:53.352Z,100.00
2023-02-28T18:15:22.963Z,100.00
2023-02-28T18:17:50.868Z,100.00
2023-02-28T18:20:19.117Z,100.00
2023-02-28T18:22:47.667Z,100.00
2023-02-28T18:25:17.123Z,100.00
2023-02-28T18:27:54.321Z,100.00
2023-02-28T18:30:22.601Z,100.00
2023-02-28T18:32:50.228Z,100.00
2023-02-28T18:35:34.662Z,100.00
2023-02-28T18:38:06.670Z,100.00
2023-02-28T18:40:34.193Z,100.00
2023-02-28T18:43:02.268Z,100.00
2023-02-28T18:45:30.126Z,100.00
2023-02-28T18:47:57.739Z,100.00
2023-02-28T18:50:25.220Z,100.00
2023-02-28T18:52:52.540Z,100.00
2023-02-28T18:55:20.107Z,100.00
2023-02-28T18:57:48.102Z,100.00
2023-02-28T19:00:19.791Z,100.00
2023-02-28T19:02:47.462Z,100.00
2023-02-28T19:05:14.953Z,100.00
2023-02-28T19:07:42.547Z,100.00
2023-02-28T19:10:12.105Z,100.00
2023-02-28T19:12:42.450Z,100.00
2023-02-28T19:15:10.717Z,100.00
2023-02-28T19:17:38.614Z,100.00
2023-02-28T19:20:07.467Z,100.00
2023-02-28T19:22:35.132Z,100.00
2023-02-28T19:25:04.503Z,100.00
2023-02-28T19:27:32.362Z,100.00
2023-02-28T19:29:59.866Z,100.00
2023-02-28T19:32:27.883Z,100.00
2023-02-28T19:34:55.550Z,100.00
2023-02-28T19:37:23.317Z,100.00
2023-02-28T19:39:50.675Z,100.00
2023-02-28T19:42:18.511Z,100.00
2023-02-28T19:44:46.014Z,100.00
2023-02-28T19:47:14.286Z,100.00
2023-02-28T19:49:41.894Z,100.00
2023-02-28T19:52:13.336Z,100.00
2023-02-28T19:54:42.983Z,100.00
2023-02-28T19:57:10.265Z,100.00
2023-02-28T19:59:39.618Z,100.00
2023-02-28T20:02:14.658Z,100.00
2023-02-28T20:04:42.337Z,100.00
2023-02-28T20:07:09.840Z,100.00
2023-02-28T20:09:37.297Z,100.00
2023-02-28T20:12:07.127Z,100.00
2023-02-28T20:14:37.307Z,100.00
2023-02-28T20:17:04.883Z,100.00
2023-02-28T20:19:32.415Z,100.00
2023-02-28T20:22:01.032Z,100.00
2023-02-28T20:24:29.724Z,100.00
2023-02-28T20:26:57.691Z,100.00
2023-02-28T20:29:25.519Z,100.00
2023-02-28T20:31:52.938Z,100.00
2023-02-28T20:34:20.400Z,100.00
2023-02-28T20:36:47.832Z,100.00
2023-02-28T20:39:15.371Z,100.00
2023-02-28T20:41:42.715Z,100.00
2023-02-28T20:44:12.516Z,100.00
2023-02-28T20:46:41.496Z,100.00
2023-02-28T20:49:10.018Z,100.00
2023-02-28T20:51:40.141Z,100.00
2023-02-28T20:54:09.289Z,100.00
2023-02-28T20:56:37.466Z,100.00
2023-02-28T20:59:05.672Z,100.00
2023-02-28T21:01:33.680Z,100.00
2023-02-28T21:04:04.045Z,100.00
2023-02-28T21:06:35.108Z,100.00
2023-02-28T21:09:09.041Z,100.00
2023-02-28T21:11:38.654Z,100.00
2023-02-28T21:14:09.651Z,100.00
2023-02-28T21:16:38.063Z,100.00
2023-02-28T21:19:05.821Z,100.00
2023-02-28T21:21:39.790Z,100.00
2023-02-28T21:24:07.798Z,100.00
2023-02-28T21:26:35.413Z,100.00
2023-02-28T21:29:03.424Z,100.00
2023-02-28T21:31:33.567Z,100.00
2023-02-28T21:34:03.193Z,100.00
2023-02-28T21:36:37.151Z,100.00
2023-02-28T21:39:12.396Z,100.00
2023-02-28T21:41:41.740Z,100.00
2023-02-28T21:44:18.220Z,100.00
2023-02-28T21:46:48.966Z,100.00
2023-02-28T21:49:17.200Z,100.00
2023-02-28T21:51:44.993Z,100.00
2023-02-28T21:54:12.843Z,100.00
2023-02-28T21:56:40.789Z,100.00
2023-02-28T21:59:09.798Z,100.00
2023-02-28T22:01:41.247Z,100.00
2023-02-28T22:04:11.075Z,100.00
2023-02-28T22:06:41.362Z,100.00
2023-02-28T22:09:10.272Z,100.00
2023-02-28T22:11:38.770Z,100.00
2023-02-28T22:14:07.702Z,100.00
2023-02-28T22:16:50.346Z,100.00
2023-02-28T22:19:20.441Z,100.00
2023-02-28T22:21:48.564Z,100.00
2023-02-28T22:24:18.102Z,100.00
2023-02-28T22:26:45.672Z,100.00
2023-02-28T22:29:13.023Z,100.00
2023-02-28T22:31:40.267Z,100.00
2023-02-28T22:34:09.631Z,100.00
2023-02-28T22:36:37.635Z,100.00
2023-02-28T22:39:05.743Z,100.00
2023-02-28T22:41:33.623Z,100.00
2023-02-28T22:44:03.941Z,100.00
2023-02-28T22:46:33.838Z,100.00
2023-02-28T22:49:03.254Z,100.00
2023-02-28T22:51:31.326Z,100.00
2023-02-28T22:53:58.954Z,100.00
2023-02-28T22:56:29.168Z,100.00
2023-02-28T22:58:58.684Z,100.00
2023-02-28T23:01:28.886Z,100.00
2023-02-28T23:03:56.890Z,100.00
2023-02-28T23:06:30.754Z,100.00
2023-02-28T23:09:01.408Z,100.00
2023-02-28T23:11:34.020Z,100.00
2023-02-28T23:14:02.624Z,100.00
2023-02-28T23:16:43.101Z,100.00
2023-02-28T23:19:15.381Z,100.00
2023-02-28T23:21:44.163Z,100.00
2023-02-28T23:24:13.531Z,100.00
2023-02-28T23:26:44.195Z,100.00
2023-02-28T23:29:13.776Z,100.00
2023-02-28T23:31:41.245Z,100.00
2023-02-28T23:34:08.690Z,100.00
2023-02-28T23:36:36.820Z,100.00
2023-02-28T23:39:04.343Z,100.00
2023-02-28T23:41:32.263Z,100.00
2023-02-28T23:43:59.697Z,100.00
2023-02-28T23:46:27.257Z,100.00
2023-02-28T23:48:54.752Z,100.00
2023-02-28T23:51:22.873Z,100.00
2023-02-28T23:53:52.255Z,100.00
2023-02-28T23:56:22.396Z,100.00
2023-02-28T23:58:50.660Z,100.00
